Time;durP1;ratioP1;P1;durP2;ratioP2;P2;SDS_P1;SDS_P2;PMS_P1;PMS_P2;Temp;Humidity;BMP_temperature;BMP_pressure;BME280_temperature;BME280_humidity;BME280_pressure;Samples;Min_cycle;Max_cycle;Signal;HPM_P1;HPM_P2
2022/05/03 00:00:17;;;;;;;70.83;27.73;;;3.30;1.00;;;;;;5015106;28;19967;-24
2022/05/03 00:03:14;;;;;;;28.80;20.90;;;3.30;1.00;;;;;;5015193;28;20049;-24
2022/05/03 00:05:58;;;;;;;20.50;15.93;;;3.30;1.00;;;;;;5016761;28;20049;-24
2022/05/03 00:08:28;;;;;;;13.40;10.77;;;3.30;1.00;;;;;;5014131;28;20057;-24
2022/05/03 00:11:11;;;;;;;13.13;11.20;;;3.10;1.00;;;;;;5013433;28;20049;-24
2022/05/03 00:13:50;;;;;;;10.80;7.83;;;3.00;1.00;;;;;;5015466;28;20054;-24
2022/05/03 00:16:17;;;;;;;10.97;8.67;;;2.90;1.00;;;;;;5014821;28;20046;-24
2022/05/03 00:18:43;;;;;;;12.23;9.60;;;2.80;1.00;;;;;;5013414;28;20054;-26
2022/05/03 00:21:10;;;;;;;10.27;9.13;;;2.80;1.00;;;;;;5030274;28;20045;-24
2022/05/03 00:23:36;;;;;;;11.17;7.33;;;2.70;1.00;;;;;;5015273;28;20096;-24
2022/05/03 00:26:02;;;;;;;11.83;9.80;;;2.60;1.00;;;;;;5015227;28;20046;-24
2022/05/03 00:28:29;;;;;;;9.47;7.33;;;2.50;1.00;;;;;;5014654;28;20058;-25
2022/05/03 00:30:55;;;;;;;12.73;9.60;;;2.50;1.00;;;;;;5015482;28;20048;-24
2022/05/03 00:33:23;;;;;;;7.63;6.90;;;2.40;1.00;;;;;;5013613;28;20062;-24
2022/05/03 00:35:49;;;;;;;8.80;6.97;;;2.40;1.00;;;;;;5028306;28;20094;-24
2022/05/03 00:38:15;;;;;;;9.07;8.17;;;2.30;1.00;;;;;;5034627;28;20100;-24
2022/05/03 00:40:47;;;;;;;8.37;7.30;;;2.30;1.00;;;;;;5019183;28;20437;-24
2022/05/03 00:43:21;;;;;;;15.48;13.27;;;2.20;1.00;;;;;;5013639;28;20483;-24
2022/05/03 00:46:17;;;;;;;15.77;12.20;;;2.30;1.00;;;;;;5013180;28;20041;-25
2022/05/03 00:48:43;;;;;;;18.07;14.77;;;2.40;1.00;;;;;;5013723;28;20093;-24
2022/05/03 00:51:25;;;;;;;17.83;15.63;;;2.50;1.00;;;;;;5014818;28;20080;-24
2022/05/03 00:54:14;;;;;;;21.40;17.10;;;2.60;87.30;;;;;;5015615;28;20402;-24
2022/05/03 00:57:04;;;;;;;21.83;15.87;;;2.60;99.90;;;;;;5014990;28;20072;-24
2022/05/03 00:59:51;;;;;;;22.53;16.13;;;2.70;99.90;;;;;;5014738;28;20125;-24
2022/05/03 01:02:31;;;;;;;18.10;14.50;;;2.70;97.10;;;;;;5015858;28;20100;-24
2022/05/03 01:05:09;;;;;;;23.13;19.57;;;2.60;52.60;;;;;;5017214;28;20049;-24
2022/05/03 01:07:36;;;;;;;24.27;19.57;;;2.70;76.30;;;;;;5015815;28;20045;-25
2022/05/03 01:10:14;;;;;;;23.17;18.60;;;2.70;99.90;;;;;;5034198;28;20059;-24
2022/05/03 01:13:10;;;;;;;16.50;14.53;;;2.70;99.90;;;;;;5015292;28;20041;-26
2022/05/03 01:15:40;;;;;;;13.27;11.83;;;2.60;99.90;;;;;;5006195;28;20445;-26
2022/05/03 01:18:15;;;;;;;15.00;13.03;;;2.70;82.50;;;;;;5013643;28;20045;-26
2022/05/03 01:20:50;;;;;;;18.27;16.03;;;2.60;74.60;;;;;;5013786;28;20050;-26
2022/05/03 01:23:40;;;;;;;25.67;21.43;;;2.60;92.50;;;;;;5014181;28;20073;-26
2022/05/03 01:26:34;;;;;;;31.00;22.93;;;2.70;95.00;;;;;;5014211;28;20124;-26
2022/05/03 01:29:14;;;;;;;26.80;20.48;;;2.80;99.90;;;;;;5013852;28;20050;-26
2022/05/03 01:31:40;;;;;;;21.63;17.53;;;2.70;99.90;;;;;;5014137;28;20100;-26
2022/05/03 01:34:10;;;;;;;14.90;13.20;;;2.60;79.60;;;;;;5014706;28;20053;-26
2022/05/03 01:36:59;;;;;;;19.83;15.80;;;2.60;31.30;;;;;;5015610;28;20038;-25
2022/05/03 01:39:58;;;;;;;17.13;14.90;;;2.50;5.40;;;;;;5014033;28;20069;-27
2022/05/03 01:43:01;;;;;;;17.93;13.73;;;2.50;1.00;;;;;;5013235;28;20516;-27
2022/05/03 01:45:36;;;;;;;23.30;17.17;;;2.40;1.30;;;;;;5012428;28;20120;-26
2022/05/03 01:48:11;;;;;;;23.00;17.43;;;2.40;1.00;;;;;;5022552;28;20654;-26
2022/05/03 01:51:12;;;;;;;24.60;16.37;;;2.40;14.70;;;;;;5017935;28;20050;-26
2022/05/03 01:53:46;;;;;;;15.80;12.33;;;2.40;80.60;;;;;;5008242;28;20069;-26
2022/05/03 01:56:30;;;;;;;14.60;11.63;;;2.30;63.70;;;;;;5010801;28;20099;-26
2022/05/03 01:59:04;;;;;;;15.87;13.67;;;2.20;43.40;;;;;;5013660;28;20057;-26
2022/05/03 02:01:41;;;;;;;21.83;16.13;;;2.20;57.90;;;;;;5013875;28;20065;-26
2022/05/03 02:04:35;;;;;;;23.00;17.43;;;2.30;86.60;;;;;;5016998;28;20456;-26
2022/05/03 02:07:08;;;;;;;48.50;28.90;;;2.30;99.90;;;;;;5013536;28;20061;-26
2022/05/03 02:10:10;;;;;;;30.00;22.17;;;2.40;99.90;;;;;;5025083;28;20049;-26
2022/05/03 02:12:36;;;;;;;22.80;19.07;;;2.50;99.90;;;;;;5032448;28;20137;-26
2022/05/03 02:15:07;;;;;;;31.07;24.47;;;2.90;99.90;;;;;;5033823;28;20107;-26
2022/05/03 02:17:42;;;;;;;79.03;42.80;;;2.70;99.90;;;;;;5019018;28;20512;-26
2022/05/03 02:20:39;;;;;;;63.60;39.30;;;3.60;99.90;;;;;;5017573;28;20097;-27
2022/05/03 02:23:32;;;;;;;39.03;27.77;;;3.30;99.90;;;;;;5017564;28;20080;-26
2022/05/03 02:26:22;;;;;;;69.47;41.03;;;3.30;99.90;;;;;;5017546;28;20082;-26
2022/05/03 02:28:57;;;;;;;66.07;40.00;;;3.40;99.90;;;;;;5017434;28;20096;-26
2022/05/03 02:31:38;;;;;;;59.97;40.93;;;3.60;99.90;;;;;;5018034;28;20042;-26
2022/05/03 02:34:09;;;;;;;67.80;41.73;;;3.80;99.90;;;;;;5017730;28;20056;-27
2022/05/03 02:36:43;;;;;;;35.50;27.93;;;4.30;99.90;;;;;;5018002;28;20044;-26
2022/05/03 02:39:12;;;;;;;41.57;31.10;;;4.40;99.90;;;;;;5017846;28;20388;-26
2022/05/03 02:41:39;;;;;;;38.00;27.50;;;5.40;99.90;;;;;;5017203;28;20049;-26
2022/05/03 02:44:05;;;;;;;34.80;26.53;;;4.20;99.90;;;;;;5017020;28;20116;-27
2022/05/03 02:46:41;;;;;;;31.83;24.50;;;4.30;99.90;;;;;;5017910;28;20072;-26
2022/05/03 02:49:46;;;;;;;29.17;22.90;;;4.40;1.00;;;;;;5017118;28;20545;-27
2022/05/03 02:52:24;;;;;;;27.27;22.53;;;4.50;1.00;;;;;;5016512;28;20069;-26
2022/05/03 02:54:53;;;;;;;25.20;20.53;;;4.70;1.00;;;;;;5016943;28;20096;-27
2022/05/03 02:57:36;;;;;;;24.40;19.97;;;4.90;1.00;;;;;;5019851;28;20099;-27
2022/05/03 03:03:10;;;;;;;23.77;19.13;;;4.60;1.00;;;;;;5037466;28;20064;-27
2022/05/03 03:05:44;;;;;;;20.30;17.67;;;4.70;1.00;;;;;;5036549;28;20058;-27
2022/05/03 03:08:19;;;;;;;23.97;19.40;;;5.00;1.00;;;;;;5033806;28;20057;-27
2022/05/03 03:10:50;;;;;;;24.95;18.58;;;4.80;1.00;;;;;;5035535;28;20485;-26
2022/05/03 03:13:36;;;;;;;22.55;18.38;;;4.90;1.00;;;;;;5036968;28;20050;-27
2022/05/03 03:16:02;;;;;;;23.80;18.42;;;5.00;1.00;;;;;;5036654;28;20068;-26
2022/05/03 03:18:33;;;;;;;18.75;14.95;;;5.10;1.00;;;;;;5036339;28;20041;-27
2022/05/03 03:21:05;;;;;;;22.58;18.02;;;5.40;1.00;;;;;;5026108;28;20053;-26
2022/05/03 03:23:34;;;;;;;19.23;15.73;;;5.70;1.00;;;;;;5017008;28;20046;-26
2022/05/03 03:26:01;;;;;;;18.73;14.23;;;5.30;1.00;;;;;;5015472;28;20046;-27
2022/05/03 03:28:29;;;;;;;18.00;16.10;;;5.30;1.00;;;;;;5016779;28;20046;-26
2022/05/03 03:30:58;;;;;;;19.05;14.85;;;5.60;1.00;;;;;;5016463;28;20146;-27
2022/05/03 03:33:25;;;;;;;18.52;15.95;;;5.90;1.00;;;;;;5019360;28;20069;-27
2022/05/03 03:35:54;;;;;;;23.98;19.10;;;5.50;1.00;;;;;;5015935;28;20385;-28
2022/05/03 03:38:30;;;;;;;26.88;19.85;;;5.80;1.00;;;;;;5016981;28;20046;-27
2022/05/03 03:40:56;;;;;;;23.40;18.58;;;6.00;1.00;;;;;;5014810;28;20077;-27
2022/05/03 03:43:22;;;;;;;25.95;20.98;;;6.00;1.00;;;;;;5019088;28;20045;-27
2022/05/03 03:45:48;;;;;;;28.27;21.67;;;6.40;1.00;;;;;;5029307;28;20451;-26
2022/05/03 03:48:14;;;;;;;21.00;18.00;;;6.10;1.00;;;;;;5036006;28;20191;-26
2022/05/03 03:50:43;;;;;;;27.98;19.90;;;6.10;1.00;;;;;;5018691;28;20049;-27
2022/05/03 03:53:09;;;;;;;26.75;22.23;;;6.10;1.00;;;;;;5014839;28;20100;-26
2022/05/03 03:55:35;;;;;;;30.60;21.70;;;6.20;1.00;;;;;;5029353;28;20517;-27
2022/05/03 03:58:02;;;;;;;33.35;24.58;;;6.30;1.00;;;;;;5034399;28;20057;-26
2022/05/03 04:00:28;;;;;;;32.90;24.35;;;6.20;1.00;;;;;;5021659;28;20046;-28
2022/05/03 04:02:54;;;;;;;34.55;25.58;;;6.20;1.00;;;;;;5015686;28;20045;-26
2022/05/03 04:05:21;;;;;;;37.15;26.00;;;6.60;1.00;;;;;;5000472;28;20045;-27
2022/05/03 04:07:48;;;;;;;39.35;27.35;;;6.40;1.00;;;;;;5018429;28;20137;-26
2022/05/03 04:10:14;;;;;;;34.67;24.55;;;6.40;1.00;;;;;;5013534;28;20065;-27
2022/05/03 04:12:41;;;;;;;41.03;28.80;;;6.60;1.00;;;;;;5015582;28;20082;-27
2022/05/03 04:15:07;;;;;;;37.65;26.17;;;6.70;1.00;;;;;;5015582;28;20053;-26
2022/05/03 04:17:33;;;;;;;33.55;25.73;;;6.60;1.00;;;;;;5034821;28;20060;-28
2022/05/03 04:19:59;;;;;;;29.08;22.48;;;6.60;1.00;;;;;;5030580;28;20401;-27
2022/05/03 04:22:30;;;;;;;34.67;25.80;;;6.80;1.00;;;;;;5014792;28;20050;-27
2022/05/03 04:24:57;;;;;;;34.67;24.30;;;6.70;1.00;;;;;;5033272;28;20508;-26
2022/05/03 04:27:23;;;;;;;29.67;21.92;;;6.90;1.00;;;;;;5018551;28;20144;-27
2022/05/03 04:29:49;;;;;;;32.17;24.15;;;6.90;1.00;;;;;;5021433;28;20045;-26
2022/05/03 04:32:15;;;;;;;33.45;24.60;;;7.20;1.00;;;;;;5034077;28;20068;-27
2022/05/03 04:34:41;;;;;;;32.60;25.13;;;7.30;1.00;;;;;;5031399;28;20513;-27
2022/05/03 04:37:07;;;;;;;34.75;26.38;;;7.00;1.00;;;;;;5015291;28;20038;-26
2022/05/03 04:39:33;;;;;;;37.15;26.60;;;7.00;1.00;;;;;;5014520;28;20077;-26
2022/05/03 04:41:58;;;;;;;38.22;28.08;;;7.20;1.00;;;;;;5013605;28;20076;-28
2022/05/03 04:44:24;;;;;;;36.83;26.95;;;7.10;1.00;;;;;;5013839;28;20552;-27
2022/05/03 04:46:50;;;;;;;35.50;26.42;;;7.10;1.00;;;;;;4998218;28;20115;-27
2022/05/03 04:49:16;;;;;;;36.70;26.67;;;7.20;1.00;;;;;;5013118;28;20042;-27
2022/05/03 04:51:41;;;;;;;33.45;24.70;;;7.40;1.00;;;;;;5013540;28;20057;-26
2022/05/03 04:54:08;;;;;;;32.63;26.10;;;7.40;1.00;;;;;;5018405;28;20515;-27
2022/05/03 04:56:35;;;;;;;33.45;25.48;;;7.30;1.00;;;;;;5025200;28;20452;-26
2022/05/03 04:59:02;;;;;;;39.28;28.27;;;7.40;1.00;;;;;;5014969;28;20049;-28
2022/05/03 05:01:28;;;;;;;36.78;28.58;;;7.80;1.00;;;;;;5013003;28;20049;-27
2022/05/03 05:03:55;;;;;;;37.50;28.85;;;7.40;1.00;;;;;;5013994;28;20080;-26
2022/05/03 05:06:21;;;;;;;36.03;27.17;;;7.50;1.00;;;;;;5014534;28;20132;-27
2022/05/03 05:08:47;;;;;;;42.72;29.70;;;7.40;1.00;;;;;;5013629;28;20058;-28
2022/05/03 05:11:13;;;;;;;40.20;28.38;;;7.40;1.00;;;;;;5014350;28;20042;-27
2022/05/03 05:13:39;;;;;;;37.72;28.02;;;7.40;1.00;;;;;;5014745;28;20221;-27
2022/05/03 05:16:06;;;;;;;40.78;27.80;;;7.60;1.00;;;;;;5013447;28;20060;-27
2022/05/03 05:18:33;;;;;;;40.53;29.15;;;7.80;1.00;;;;;;5013718;28;20057;-27
2022/05/03 05:20:59;;;;;;;36.70;27.35;;;7.50;1.00;;;;;;5013735;28;20092;-26
2022/05/03 05:23:25;;;;;;;40.15;28.75;;;7.60;1.00;;;;;;5018552;28;20061;-27
2022/05/03 05:25:51;;;;;;;43.42;30.17;;;7.70;1.00;;;;;;5023821;28;20568;-27
2022/05/03 05:28:19;;;;;;;39.55;28.40;;;7.90;1.00;;;;;;5014529;28;20045;-27
2022/05/03 05:30:46;;;;;;;41.40;29.90;;;8.00;1.00;;;;;;5013653;28;20074;-26
2022/05/03 05:33:12;;;;;;;40.83;27.83;;;8.30;1.00;;;;;;5017136;28;20056;-26
2022/05/03 05:35:39;;;;;;;45.17;29.75;;;7.80;1.00;;;;;;5014219;28;20042;-27
2022/05/03 05:38:06;;;;;;;50.72;32.55;;;7.80;1.00;;;;;;5014090;28;20050;-26
2022/05/03 05:40:32;;;;;;;42.60;30.13;;;7.80;1.00;;;;;;5026544;28;20053;-27
2022/05/03 05:43:00;;;;;;;41.03;29.45;;;7.90;1.00;;;;;;5017312;28;20053;-26
2022/05/03 05:45:26;;;;;;;47.38;31.50;;;8.20;1.00;;;;;;5023448;28;20094;-27
2022/05/03 05:47:52;;;;;;;39.13;29.00;;;8.00;1.00;;;;;;5032202;28;20404;-27
2022/05/03 05:50:18;;;;;;;48.35;31.63;;;8.20;1.00;;;;;;5016196;28;20050;-26
2022/05/03 05:55:28;;;;;;;44.33;30.05;;;8.30;1.00;;;;;;5012777;28;20485;-28
2022/05/03 05:57:54;;;;;;;42.55;29.92;;;8.50;1.00;;;;;;5022254;28;20081;-27
2022/05/03 06:00:19;;;;;;;47.83;32.78;;;8.30;1.00;;;;;;5033113;28;20053;-27
2022/05/03 06:02:46;;;;;;;41.53;29.92;;;8.40;1.00;;;;;;5014961;28;20053;-27
2022/05/03 06:05:11;;;;;;;35.40;15.48;;;8.70;3.40;;;;;;4996504;28;20064;-27
2022/05/03 06:07:37;;;;;;;17.05;6.28;;;8.50;99.90;;;;;;5013424;28;20413;-27
2022/05/03 06:10:04;;;;;;;16.08;4.90;;;8.60;99.90;;;;;;5013683;28;20115;-26
2022/05/03 06:12:29;;;;;;;21.42;6.82;;;8.60;99.90;;;;;;5012769;28;20482;-27
2022/05/03 06:14:55;;;;;;;19.83;6.30;;;8.60;99.90;;;;;;5014362;28;20056;-27
2022/05/03 06:17:21;;;;;;;16.50;5.90;;;8.60;99.90;;;;;;5017880;28;20112;-27
2022/05/03 06:19:46;;;;;;;19.50;6.18;;;8.70;99.90;;;;;;5020000;28;20045;-26
2022/05/03 06:22:13;;;;;;;17.17;4.97;;;8.90;99.90;;;;;;5017856;28;20037;-26
2022/05/03 06:24:39;;;;;;;19.05;7.30;;;8.50;99.90;;;;;;5025001;28;20128;-27
2022/05/03 06:27:05;;;;;;;19.73;5.72;;;8.80;99.90;;;;;;5020802;28;20120;-29
2022/05/03 06:29:35;;;;;;;17.33;5.93;;;8.70;99.90;;;;;;5033258;28;20137;-29
2022/05/03 06:32:00;;;;;;;19.63;6.25;;;8.80;99.90;;;;;;5031362;28;20107;-29
2022/05/03 06:34:26;;;;;;;17.10;5.65;;;8.60;99.90;;;;;;5033459;28;20046;-28
2022/05/03 06:36:52;;;;;;;23.33;6.78;;;8.50;99.90;;;;;;5033159;28;20460;-28
2022/05/03 06:39:18;;;;;;;19.75;6.43;;;8.50;99.90;;;;;;5014941;28;20054;-29
2022/05/03 06:41:44;;;;;;;19.15;6.72;;;8.60;99.90;;;;;;5013458;28;20092;-30
2022/05/03 06:44:09;;;;;;;22.63;6.68;;;8.90;99.90;;;;;;4996132;28;20432;-27
2022/05/03 06:46:35;;;;;;;16.45;6.38;;;8.60;99.90;;;;;;5012416;28;20053;-27
2022/05/03 06:49:01;;;;;;;23.45;6.70;;;8.70;99.90;;;;;;5012777;28;20081;-27
2022/05/03 06:51:26;;;;;;;28.40;7.75;;;8.70;99.90;;;;;;5012125;28;20085;-27
2022/05/03 06:53:53;;;;;;;23.20;7.45;;;8.70;99.90;;;;;;5013290;28;20085;-27
2022/05/03 06:56:18;;;;;;;20.55;6.40;;;8.90;99.90;;;;;;5013826;28;20128;-27
2022/05/03 06:58:45;;;;;;;22.52;7.20;;;8.70;99.90;;;;;;5013335;28;20437;-27
2022/05/03 07:01:13;;;;;;;19.48;7.18;;;8.60;99.90;;;;;;5013250;28;20501;-27
2022/05/03 07:03:40;;;;;;;23.38;7.53;;;8.90;99.90;;;;;;5013270;28;20042;-27
2022/05/03 07:06:07;;;;;;;31.35;8.63;;;8.70;99.90;;;;;;5016580;28;20042;-27
2022/05/03 07:08:34;;;;;;;24.77;6.35;;;8.80;99.90;;;;;;5017003;28;20076;-28
2022/05/03 07:10:59;;;;;;;18.50;6.68;;;8.80;99.90;;;;;;5016322;28;20068;-27
2022/05/03 07:13:26;;;;;;;24.42;6.03;;;9.30;99.90;;;;;;5016667;28;20493;-27
2022/05/03 07:15:52;;;;;;;22.65;5.72;;;9.00;99.90;;;;;;5015350;28;20136;-27
2022/05/03 07:24:07;;;;;;;15.68;4.38;;;9.20;1.00;;;;;;5017954;28;20064;-27
2022/05/03 07:26:33;;;;;;;21.10;4.82;;;9.10;1.00;;;;;;5033868;28;20045;-27
2022/05/03 07:28:59;;;;;;;13.23;4.13;;;9.20;99.90;;;;;;5007835;28;20386;-27
2022/05/03 07:31:25;;;;;;;21.33;4.80;;;9.30;99.90;;;;;;5029111;28;20041;-27
2022/05/03 07:33:50;;;;;;;26.75;7.35;;;9.30;99.90;;;;;;5024374;28;20050;-27
2022/05/03 07:36:20;;;;;;;23.23;4.75;;;9.40;92.60;;;;;;5036465;28;20045;-27
2022/05/03 07:38:46;;;;;;;26.65;5.60;;;9.60;22.80;;;;;;5035988;28;20041;-27
2022/05/03 07:41:13;;;;;;;20.05;5.13;;;9.50;1.00;;;;;;5033504;28;20053;-27
2022/05/03 07:43:39;;;;;;;15.13;3.97;;;9.60;1.00;;;;;;5016135;28;20493;-27
2022/05/03 07:46:04;;;;;;;17.80;4.45;;;9.70;99.90;;;;;;4998424;28;20042;-27
2022/05/03 07:48:30;;;;;;;17.95;3.40;;;9.90;99.90;;;;;;5015997;28;20129;-27
2022/05/03 07:50:56;;;;;;;15.27;4.30;;;10.00;99.90;;;;;;5015919;28;20396;-28
2022/05/03 07:53:22;;;;;;;20.48;4.82;;;10.10;99.90;;;;;;5015735;28;20073;-27
2022/05/03 07:55:49;;;;;;;16.15;4.70;;;10.30;99.90;;;;;;5015998;28;20049;-27
2022/05/03 07:58:15;;;;;;;11.45;4.22;;;10.10;99.90;;;;;;5015809;28;20126;-27
2022/05/03 08:00:41;;;;;;;19.40;5.10;;;10.30;35.10;;;;;;5015772;28;20085;-27
2022/05/03 08:03:07;;;;;;;19.70;4.78;;;10.30;1.00;;;;;;5014579;28;20050;-27
2022/05/03 08:05:33;;;;;;;16.83;4.10;;;10.20;1.00;;;;;;5015656;28;20481;-27
2022/05/03 08:07:59;;;;;;;17.85;4.07;;;10.30;1.00;;;;;;5014300;28;20057;-28
2022/05/03 08:10:25;;;;;;;13.15;3.92;;;10.20;1.00;;;;;;5018049;28;20045;-27
2022/05/03 08:12:51;;;;;;;17.83;4.35;;;10.20;1.00;;;;;;5029344;28;20045;-27
2022/05/03 08:15:20;;;;;;;16.02;4.30;;;10.30;1.00;;;;;;5033267;28;20500;-28
2022/05/03 08:17:46;;;;;;;9.85;3.75;;;10.30;99.90;;;;;;5014764;28;20132;-27
2022/05/03 08:20:13;;;;;;;14.15;3.42;;;10.40;1.00;;;;;;5015400;28;20041;-27
2022/05/03 08:22:39;;;;;;;15.13;3.75;;;10.30;99.90;;;;;;5020193;28;20045;-27
2022/05/03 08:25:06;;;;;;;21.35;4.60;;;10.20;99.90;;;;;;5027699;28;20084;-28
2022/05/03 08:27:33;;;;;;;14.85;3.72;;;10.20;99.90;;;;;;5024940;28;20046;-27
2022/05/03 08:29:59;;;;;;;15.25;3.13;;;10.30;99.90;;;;;;5019319;28;20050;-27
2022/05/03 08:32:25;;;;;;;17.48;4.55;;;10.40;99.90;;;;;;5025116;28;20064;-27
2022/05/03 08:34:51;;;;;;;19.85;5.50;;;10.30;99.90;;;;;;5014123;28;20050;-27
2022/05/03 08:42:45;;;;;;;14.60;3.33;;;10.80;99.90;;;;;;5017303;28;20077;-27
2022/05/03 08:45:11;;;;;;;16.17;2.60;;;10.90;99.90;;;;;;5030791;28;20578;-27
2022/05/03 08:47:38;;;;;;;16.55;2.45;;;10.80;99.90;;;;;;5031365;28;20057;-27
2022/05/03 08:50:09;;;;;;;16.52;2.67;;;11.00;99.90;;;;;;5013855;28;20042;-27
2022/05/03 08:53:02;;;;;;;14.48;3.08;;;11.20;97.80;;;;;;5014907;28;20049;-26
2022/05/03 08:55:28;;;;;;;12.10;2.85;;;11.60;80.20;;;;;;5014767;28;20396;-26
2022/05/03 08:57:55;;;;;;;8.45;2.72;;;11.90;99.90;;;;;;5023656;28;20049;-26
2022/05/03 09:00:21;;;;;;;11.40;2.97;;;12.00;99.90;;;;;;5032859;28;20049;-26
2022/05/03 09:02:56;;;;;;;7.47;1.77;;;12.30;33.10;;;;;;5024307;28;20104;-26
2022/05/03 09:05:23;;;;;;;9.70;2.60;;;12.00;1.00;;;;;;5016645;28;20050;-26
2022/05/03 09:07:56;;;;;;;11.07;2.20;;;11.90;1.00;;;;;;5034014;28;20507;-26
2022/05/03 09:10:23;;;;;;;9.93;2.22;;;11.90;1.00;;;;;;5017804;28;20088;-26
2022/05/03 09:12:50;;;;;;;7.53;2.08;;;12.00;1.00;;;;;;5033068;28;20132;-26
2022/05/03 09:15:29;;;;;;;9.45;2.15;;;12.00;1.00;;;;;;5027372;28;20046;-26
2022/05/03 09:17:55;;;;;;;11.43;2.33;;;12.00;1.00;;;;;;5018365;28;20057;-26
2022/05/03 09:26:12;;;;;;;9.43;1.48;;;12.40;99.90;;;;;;5014192;28;20176;-26
2022/05/03 09:28:45;;;;;;;11.45;2.20;;;12.60;1.00;;;;;;5026078;28;20045;-26
2022/05/03 09:31:11;;;;;;;12.52;2.20;;;12.70;99.90;;;;;;5033959;28;20054;-26
2022/05/03 09:33:38;;;;;;;13.07;2.65;;;12.80;99.90;;;;;;5023710;28;20049;-26
2022/05/03 09:36:09;;;;;;;7.85;2.15;;;13.10;99.90;;;;;;5031868;28;20095;-26
2022/05/03 09:38:47;;;;;;;9.93;2.55;;;13.20;99.90;;;;;;5027524;28;20050;-26
2022/05/03 09:41:17;;;;;;;12.35;2.67;;;13.50;99.90;;;;;;5013099;28;20050;-26
2022/05/03 09:44:04;;;;;;;10.23;2.03;;;13.70;99.90;;;;;;5013084;28;20108;-27
2022/05/03 09:46:51;;;;;;;10.93;2.55;;;14.20;99.90;;;;;;5013958;28;20042;-26
2022/05/03 09:49:34;;;;;;;11.23;2.55;;;14.30;99.90;;;;;;5013405;28;20073;-27
2022/05/03 09:52:00;;;;;;;7.25;2.05;;;14.50;6.50;;;;;;5029397;28;20463;-26
2022/05/03 09:54:25;;;;;;;8.85;1.70;;;14.20;99.90;;;;;;5032429;28;20144;-26
2022/05/03 09:56:53;;;;;;;11.20;2.30;;;13.80;99.90;;;;;;5031453;28;20051;-26
2022/05/03 09:59:20;;;;;;;11.00;2.00;;;14.20;99.90;;;;;;5033564;28;20056;-26
2022/05/03 10:01:46;;;;;;;8.88;2.03;;;14.50;92.50;;;;;;5033546;28;20092;-27
2022/05/03 10:04:13;;;;;;;12.02;1.73;;;14.80;99.90;;;;;;5036479;28;20044;-26
2022/05/03 10:06:40;;;;;;;8.27;2.15;;;14.60;99.90;;;;;;5032630;28;20049;-26
2022/05/03 10:09:07;;;;;;;11.82;2.22;;;14.80;90.70;;;;;;5031900;28;20156;-26
2022/05/03 10:11:36;;;;;;;7.70;1.63;;;14.80;88.80;;;;;;5033432;28;20057;-26
2022/05/03 10:14:02;;;;;;;11.35;1.88;;;14.60;74.50;;;;;;5032289;28;20057;-26
2022/05/03 10:22:04;;;;;;;8.98;2.10;;;14.70;1.00;;;;;;5034193;28;20167;-26
2022/05/03 10:24:31;;;;;;;6.65;1.83;;;14.50;90.20;;;;;;5030894;28;20049;-26
2022/05/03 10:27:06;;;;;;;8.98;1.45;;;14.40;24.80;;;;;;5021747;28;20439;-27
2022/05/03 10:29:37;;;;;;;10.38;1.90;;;14.40;49.50;;;;;;5031426;28;20497;-26
2022/05/03 10:32:14;;;;;;;11.55;1.80;;;14.10;1.00;;;;;;5016028;28;20048;-28
2022/05/03 10:34:49;;;;;;;6.13;1.55;;;14.30;13.60;;;;;;5016218;28;20049;-28
2022/05/03 10:37:34;;;;;;;8.50;1.40;;;14.70;45.80;;;;;;5016968;28;20053;-27
2022/05/03 10:40:09;;;;;;;7.57;1.38;;;15.00;1.00;;;;;;5034680;28;20055;-27
2022/05/03 10:42:35;;;;;;;8.77;1.50;;;15.30;1.00;;;;;;5029245;28;20112;-27
2022/05/03 10:45:06;;;;;;;8.77;1.60;;;15.10;1.00;;;;;;5036438;28;20110;-27
2022/05/03 10:47:53;;;;;;;9.30;2.00;;;14.80;1.00;;;;;;5022916;28;20125;-27
2022/05/03 10:50:22;;;;;;;7.45;1.70;;;14.50;1.00;;;;;;5017206;28;20042;-28
2022/05/03 10:52:54;;;;;;;9.15;2.53;;;14.20;1.00;;;;;;5016918;28;20050;-27
2022/05/03 10:55:21;;;;;;;7.68;1.67;;;14.20;99.90;;;;;;5033371;28;20056;-27
2022/05/03 10:58:25;;;;;;;8.57;1.52;;;14.40;90.50;;;;;;5006162;28;20100;-27
2022/05/03 11:01:10;;;;;;;5.80;1.45;;;14.60;1.00;;;;;;5016872;28;20132;-27
2022/05/03 11:03:57;;;;;;;8.27;1.83;;;14.50;1.00;;;;;;5027427;28;20045;-28
2022/05/03 11:06:23;;;;;;;8.07;1.60;;;14.30;1.00;;;;;;5036633;28;20037;-27
2022/05/03 11:08:59;;;;;;;11.88;1.85;;;14.30;7.70;;;;;;5036259;28;20562;-28
2022/05/03 11:11:39;;;;;;;6.45;1.77;;;14.70;1.00;;;;;;5036508;28;20067;-28
2022/05/03 11:14:18;;;;;;;12.52;3.22;;;15.10;8.90;;;;;;5036449;28;20061;-28
2022/05/03 11:17:03;;;;;;;8.50;1.55;;;14.90;1.00;;;;;;5017486;28;20049;-27
2022/05/03 11:19:30;;;;;;;6.47;1.70;;;14.90;1.00;;;;;;5024009;28;20495;-27
2022/05/03 11:21:58;;;;;;;8.18;1.50;;;14.50;1.00;;;;;;5022795;28;20139;-28
2022/05/03 11:24:26;;;;;;;9.50;1.70;;;14.10;1.00;;;;;;5000315;28;20058;-27
2022/05/03 11:27:00;;;;;;;6.63;1.67;;;14.10;26.90;;;;;;5021210;28;20042;-27
2022/05/03 11:29:30;;;;;;;8.43;1.55;;;14.30;1.00;;;;;;5020873;28;20053;-27
2022/05/03 11:31:59;;;;;;;9.10;1.40;;;14.70;1.00;;;;;;5033209;28;20520;-27
2022/05/03 11:34:26;;;;;;;17.85;1.63;;;14.70;1.00;;;;;;5032392;28;20045;-27
2022/05/03 11:36:52;;;;;;;9.75;1.92;;;14.50;1.00;;;;;;5007532;28;20049;-27
2022/05/03 11:39:20;;;;;;;8.93;1.55;;;14.20;1.00;;;;;;5034275;28;20052;-27
2022/05/03 11:41:47;;;;;;;5.55;2.03;;;14.40;1.00;;;;;;5022166;28;20053;-27
2022/05/03 11:44:14;;;;;;;5.95;1.38;;;14.50;1.00;;;;;;5020921;28;20042;-27
2022/05/03 11:46:42;;;;;;;8.75;2.35;;;14.60;1.00;;;;;;5022416;28;20049;-27
2022/05/03 11:49:11;;;;;;;6.38;1.67;;;14.20;1.00;;;;;;5034853;28;20508;-28
2022/05/03 11:57:25;;;;;;;4.90;1.50;;;15.10;1.00;;;;;;5015865;28;20055;-27
2022/05/03 11:59:55;;;;;;;11.25;1.70;;;14.90;1.00;;;;;;5025418;28;20046;-27
2022/05/03 12:02:24;;;;;;;5.28;1.67;;;14.70;1.00;;;;;;5035589;28;20045;-27
2022/05/03 12:05:20;;;;;;;4.47;1.27;;;14.80;1.00;;;;;;5035527;28;20045;-27
2022/05/03 12:07:47;;;;;;;7.25;1.70;;;14.80;1.00;;;;;;5029964;28;20056;-27
2022/05/03 12:10:29;;;;;;;5.38;2.15;;;14.70;1.00;;;;;;5036582;28;20136;-27
2022/05/03 12:13:17;;;;;;;9.00;1.73;;;14.90;1.00;;;;;;5018624;28;20050;-27
2022/05/03 12:15:45;;;;;;;8.10;1.95;;;14.80;1.00;;;;;;5014736;28;20077;-27
2022/05/03 12:18:45;;;;;;;11.45;2.22;;;14.30;1.00;;;;;;5034590;28;20037;-27
2022/05/03 12:21:28;;;;;;;9.43;2.50;;;14.30;1.00;;;;;;5033263;28;20065;-28
2022/05/03 12:24:05;;;;;;;8.43;1.77;;;14.30;1.00;;;;;;5016279;28;20050;-27
2022/05/03 12:26:40;;;;;;;8.13;1.77;;;14.80;1.00;;;;;;5015888;28;21081;-27
2022/05/03 12:29:08;;;;;;;9.30;2.22;;;15.40;1.00;;;;;;5019013;28;20048;-27
2022/05/03 12:31:39;;;;;;;6.82;1.70;;;15.20;1.00;;;;;;5015160;28;20528;-27
2022/05/03 12:34:11;;;;;;;11.77;2.03;;;15.50;1.00;;;;;;5028698;28;20042;-27
2022/05/03 12:36:39;;;;;;;10.60;2.07;;;15.60;1.00;;;;;;5036681;28;20045;-27
2022/05/03 12:39:25;;;;;;;7.80;1.80;;;15.10;1.00;;;;;;5033868;28;20488;-27
2022/05/03 12:42:00;;;;;;;5.63;1.33;;;14.60;1.00;;;;;;5034733;28;20064;-27
2022/05/03 12:44:27;;;;;;;7.47;1.70;;;14.40;1.00;;;;;;5033597;28;20075;-27
2022/05/03 12:47:07;;;;;;;6.13;1.67;;;14.70;1.00;;;;;;5026093;28;20042;-27
2022/05/03 12:49:33;;;;;;;12.98;2.53;;;14.90;1.00;;;;;;5014966;28;20058;-27
2022/05/03 12:52:00;;;;;;;10.63;2.17;;;14.90;1.00;;;;;;5013552;28;20049;-27
2022/05/03 12:54:25;;;;;;;6.28;1.65;;;14.50;1.00;;;;;;5022178;28;20172;-27
2022/05/03 12:59:35;;;;;;;6.90;2.03;;;14.60;1.00;;;;;;5024616;28;20081;-27
2022/05/03 13:02:01;;;;;;;7.10;1.83;;;14.90;1.00;;;;;;5027172;28;20072;-27
2022/05/03 13:04:31;;;;;;;10.50;2.35;;;15.00;1.00;;;;;;5033825;28;20049;-27
2022/05/03 13:07:01;;;;;;;8.00;1.52;;;15.30;1.00;;;;;;5014966;28;20393;-27
2022/05/03 13:09:30;;;;;;;7.50;1.85;;;16.10;1.00;;;;;;5000547;28;20050;-27
2022/05/03 13:11:56;;;;;;;10.70;1.95;;;16.50;1.00;;;;;;5013862;28;20081;-27
2022/05/03 13:14:21;;;;;;;12.27;2.03;;;16.50;1.00;;;;;;5014619;28;20053;-28
2022/05/03 13:16:49;;;;;;;9.35;1.70;;;15.90;99.90;;;;;;5009532;28;20092;-27
2022/05/03 13:19:14;;;;;;;5.85;2.08;;;15.40;1.00;;;;;;5022015;28;20083;-27
2022/05/03 13:21:43;;;;;;;7.90;1.67;;;15.90;1.00;;;;;;5017835;28;20054;-27
2022/05/03 13:24:11;;;;;;;7.97;2.30;;;16.00;99.90;;;;;;5013799;28;20046;-27
2022/05/03 13:26:39;;;;;;;7.05;1.50;;;15.80;99.90;;;;;;5013692;28;20049;-27
2022/05/03 13:29:16;;;;;;;5.18;1.40;;;15.70;99.90;;;;;;5014522;28;20049;-27
2022/05/03 13:31:43;;;;;;;7.82;1.63;;;15.80;99.90;;;;;;5014160;28;20104;-28
2022/05/03 13:34:10;;;;;;;7.93;1.25;;;15.80;99.90;;;;;;5017124;28;20053;-27
2022/05/03 13:42:07;;;;;;;10.32;1.80;;;15.40;99.90;;;;;;5014195;28;20085;-27
2022/05/03 13:44:34;;;;;;;14.77;2.83;;;15.40;99.90;;;;;;5013421;28;20073;-27
2022/05/03 13:47:00;;;;;;;9.82;1.80;;;15.20;99.90;;;;;;5012458;28;20054;-27
2022/05/03 13:49:27;;;;;;;7.80;1.83;;;15.00;1.00;;;;;;5012529;28;20050;-27